This is the latest recevied weather packets stored in our database for station/object DL7KST-13. If no packets are shown the sender has not sent any weather packets the latest 10 day(s).
| Time | Temp. | Humidity | Pressure | Rain* | Wind** | Luminosity | Snow |
|---|---|---|---|---|---|---|---|
| 1777627124 | 20° C | 32% | 1019.5 hPa | 0 mm | 0.45 m/s, 287° | - | - |
| 1777625918 | 18.89° C | 34% | 1019.5 hPa | 0 mm | 0.45 m/s, 283° | - | - |
| 1777624713 | 18.89° C | 34% | 1019.7 hPa | 0 mm | 0.45 m/s, 294° | - | - |
| 1777623508 | 18.89° C | 36% | 1019.9 hPa | 0 mm | 0 m/s | - | - |
| 1777622308 | 17.78° C | 39% | 1019.8 hPa | 0 mm | 0 m/s | - | - |
| 1777621099 | 16.67° C | 46% | 1019.6 hPa | 0 mm | 0 m/s | - | - |
| 1777619893 | 15.56° C | 47% | 1020 hPa | 0 mm | 0.45 m/s, 57° | - | - |
| 1777618689 | 15.56° C | 48% | 1019.9 hPa | 0 mm | 1.34 m/s, 52° | - | - |
| 1777617982 | 15° C | 50% | 1019.8 hPa | 0 mm | 0.45 m/s, 17° | - | - |
| 1777617483 | 15° C | 50% | 1019.8 hPa | 0 mm | 0.45 m/s, 17° | - | - |
| 1777616278 | 13.33° C | 53% | 1019.7 hPa | 0 mm | 0.45 m/s, 80° | - | - |
| 1777615073 | 11.67° C | 61% | 1019.8 hPa | 0 mm | 0.45 m/s, 67° | - | - |
| 1777613867 | 6.67° C | 80% | 1019.8 hPa | 0 mm | 0.45 m/s, 51° | - | - |
| 1777612662 | 3.89° C | 91% | 1019.7 hPa | 0 mm | 0.45 m/s, 130° | - | - |
| 1777611459 | 2.78° C | 95% | 1019.6 hPa | 0 mm | 0.45 m/s, 89° | - | - |
| 1777610253 | 2.22° C | 93% | 1019.7 hPa | 0 mm | 0.45 m/s, 100° | - | - |
| 1777609048 | 1.67° C | 93% | 1019.6 hPa | 0 mm | 0.45 m/s, 53° | - | - |
| 1777607843 | 1.67° C | 92% | 1019.5 hPa | 0 mm | 0.45 m/s, 56° | - | - |
| 1777606638 | 1.67° C | 93% | 1019.5 hPa | 0 mm | 0.45 m/s, 49° | - | - |
| 1777605432 | 1.67° C | 91% | 1019.6 hPa | 0 mm | 0.45 m/s, 71° | - | - |
| 1777604228 | 1.67° C | 93% | 1019.5 hPa | 0 mm | 0.45 m/s, 64° | - | - |
| 1777603023 | 2.22° C | 90% | 1019.5 hPa | 0 mm | 0.45 m/s, 67° | - | - |
| 1777601818 | 2.22° C | 91% | 1019.5 hPa | 0 mm | 0.45 m/s, 59° | - | - |
| 1777600613 | 2.78° C | 90% | 1019.7 hPa | 0 mm | 0.45 m/s, 105° | - | - |
| 1777599408 | 2.78° C | 90% | 1019.4 hPa | 0 mm | 0.45 m/s, 73° | - | - |
* Rain latest hour (hover to see other rain measurements)
** Current wind speed in m/s (hover to see current wind gust speed)